Time;durP1;ratioP1;P1;durP2;ratioP2;P2;SDS_P1;SDS_P2;PMS_P1;PMS_P2;Temp;Humidity;BMP_temperature;BMP_pressure;BME280_temperature;BME280_humidity;BME280_pressure;Samples;Min_cycle;Max_cycle;Signal;HPM_P1;HPM_P2
2021/08/08 00:01:44;;;;;;;27.58;6.55;;;14.20;99.90;;;;;;5091516;28;20048;-79
2021/08/08 00:04:11;;;;;;;27.30;6.43;;;14.20;99.90;;;;;;5072937;28;20470;-80
2021/08/08 00:06:42;;;;;;;23.83;6.18;;;14.20;99.90;;;;;;5073726;28;20433;-81
2021/08/08 00:09:09;;;;;;;27.33;6.15;;;14.20;99.90;;;;;;5073067;28;20051;-79
2021/08/08 00:11:36;;;;;;;27.73;5.90;;;14.20;99.90;;;;;;5074217;28;20051;-82
2021/08/08 00:14:04;;;;;;;29.88;6.57;;;14.20;99.90;;;;;;5072996;28;20044;-80
2021/08/08 00:16:31;;;;;;;27.05;6.43;;;14.20;99.90;;;;;;5073080;28;20047;-81
2021/08/08 00:18:58;;;;;;;19.73;5.30;;;14.20;99.90;;;;;;5073581;28;20039;-82
2021/08/08 00:21:25;;;;;;;29.25;6.35;;;14.20;99.90;;;;;;5072721;28;20083;-81
2021/08/08 00:23:53;;;;;;;16.88;5.07;;;14.20;99.90;;;;;;5074317;28;20052;-81
2021/08/08 00:26:20;;;;;;;19.77;5.43;;;14.20;99.90;;;;;;5072552;28;20040;-81
2021/08/08 00:28:48;;;;;;;22.20;5.00;;;14.20;99.90;;;;;;5073251;28;20048;-80
2021/08/08 00:31:23;;;;;;;20.80;5.07;;;14.20;99.90;;;;;;5072377;28;20532;-81
2021/08/08 00:33:53;;;;;;;21.45;6.10;;;14.20;99.90;;;;;;5073280;28;20340;-81
2021/08/08 00:36:21;;;;;;;22.70;5.82;;;14.20;99.90;;;;;;5072770;28;20060;-81
2021/08/08 00:38:47;;;;;;;20.38;5.05;;;14.20;99.90;;;;;;5074027;28;20440;-81
2021/08/08 00:41:15;;;;;;;21.88;4.75;;;14.20;99.90;;;;;;5090359;28;20474;-81
2021/08/08 00:43:42;;;;;;;26.65;6.03;;;14.20;99.90;;;;;;5073276;28;20055;-81
2021/08/08 00:46:09;;;;;;;21.05;5.85;;;14.20;99.90;;;;;;5073135;28;20428;-81
2021/08/08 00:48:36;;;;;;;19.55;5.30;;;14.20;99.90;;;;;;5077357;28;20046;-80
2021/08/08 00:51:04;;;;;;;21.98;5.43;;;14.20;99.90;;;;;;5077845;28;20386;-81
2021/08/08 00:53:31;;;;;;;22.00;5.03;;;14.10;99.90;;;;;;5076656;28;20419;-81
2021/08/08 00:55:58;;;;;;;17.33;5.15;;;14.10;99.90;;;;;;5076754;28;20044;-82
2021/08/08 00:58:27;;;;;;;21.05;5.10;;;14.10;99.90;;;;;;5076283;28;20052;-81
2021/08/08 01:00:59;;;;;;;19.35;4.72;;;14.00;99.90;;;;;;5077201;28;20044;-81
2021/08/08 01:03:28;;;;;;;21.55;5.05;;;14.00;99.90;;;;;;5075933;28;20106;-82
2021/08/08 01:06:09;;;;;;;13.63;4.60;;;13.90;99.90;;;;;;5077573;28;20486;-81
2021/08/08 01:08:44;;;;;;;16.30;4.63;;;13.90;99.90;;;;;;5076716;28;20072;-82
2021/08/08 01:11:11;;;;;;;17.30;4.53;;;13.80;99.90;;;;;;5075743;28;20062;-79
2021/08/08 01:13:39;;;;;;;19.38;4.60;;;13.70;99.90;;;;;;5076751;28;20047;-81
2021/08/08 01:16:07;;;;;;;20.05;5.63;;;13.70;99.90;;;;;;5075557;28;20048;-81
2021/08/08 01:18:34;;;;;;;16.85;4.18;;;13.70;99.90;;;;;;5060900;28;20127;-80
2021/08/08 01:21:01;;;;;;;23.13;5.47;;;13.70;99.90;;;;;;5077456;28;20048;-81
2021/08/08 01:23:32;;;;;;;20.52;5.15;;;13.60;99.90;;;;;;5076089;28;20055;-82
2021/08/08 01:25:59;;;;;;;26.88;5.03;;;13.60;99.90;;;;;;5076553;28;20055;-80
2021/08/08 01:28:27;;;;;;;20.88;4.75;;;13.60;99.90;;;;;;5074707;28;20052;-81
2021/08/08 01:30:54;;;;;;;20.25;4.90;;;13.60;99.90;;;;;;5076701;28;20382;-81
2021/08/08 01:33:21;;;;;;;20.80;4.05;;;13.50;99.90;;;;;;5075527;28;20052;-80
2021/08/08 01:35:49;;;;;;;22.92;5.07;;;13.50;99.90;;;;;;5077316;28;20052;-81
2021/08/08 01:38:16;;;;;;;20.70;4.87;;;13.50;99.90;;;;;;5075681;28;20474;-82
2021/08/08 01:40:55;;;;;;;19.45;4.03;;;13.50;99.90;;;;;;5075911;28;20513;-79
2021/08/08 01:43:28;;;;;;;16.17;4.82;;;13.50;99.90;;;;;;5075315;28;20068;-82
2021/08/08 01:46:03;;;;;;;20.63;4.88;;;13.40;99.90;;;;;;5076313;28;20055;-80
2021/08/08 01:48:37;;;;;;;16.63;4.32;;;13.40;99.90;;;;;;5075648;28;20374;-82
2021/08/08 01:51:04;;;;;;;16.50;4.18;;;13.40;99.90;;;;;;5088599;28;20470;-80
2021/08/08 01:53:31;;;;;;;14.75;3.92;;;13.40;99.90;;;;;;5075700;28;20070;-81
2021/08/08 01:55:58;;;;;;;21.73;4.60;;;13.40;99.90;;;;;;5075624;28;20040;-79
2021/08/08 01:58:27;;;;;;;15.70;4.30;;;13.40;99.90;;;;;;5074470;28;20052;-81
2021/08/08 02:00:58;;;;;;;20.05;4.45;;;13.40;99.90;;;;;;5076188;28;20044;-79
2021/08/08 02:03:36;;;;;;;16.40;4.60;;;13.40;99.90;;;;;;5075151;28;20514;-81
2021/08/08 02:06:07;;;;;;;22.42;4.18;;;13.40;99.90;;;;;;5072681;28;20044;-81
2021/08/08 02:08:34;;;;;;;14.98;3.45;;;13.40;99.90;;;;;;5074998;28;20048;-81
2021/08/08 02:11:03;;;;;;;14.68;4.03;;;13.40;99.90;;;;;;5075848;28;20040;-82
2021/08/08 02:13:30;;;;;;;13.25;3.70;;;13.30;99.90;;;;;;5074976;28;20037;-81
2021/08/08 02:15:57;;;;;;;11.43;3.40;;;13.30;99.90;;;;;;5075731;28;20056;-82
2021/08/08 02:18:24;;;;;;;14.75;3.78;;;13.30;99.90;;;;;;5074742;28;20394;-79
2021/08/08 02:20:51;;;;;;;14.10;3.45;;;13.30;99.90;;;;;;5076093;28;20051;-81
2021/08/08 02:23:18;;;;;;;13.05;3.58;;;13.30;99.90;;;;;;5074700;28;20044;-81
2021/08/08 02:25:50;;;;;;;16.48;3.95;;;13.30;99.90;;;;;;5075316;28;20040;-81
2021/08/08 02:28:18;;;;;;;14.48;3.65;;;13.30;99.90;;;;;;5074106;28;20241;-81
2021/08/08 02:30:45;;;;;;;14.18;3.63;;;13.30;99.90;;;;;;5075232;28;20044;-80
2021/08/08 02:33:12;;;;;;;21.02;4.18;;;13.30;99.90;;;;;;5074855;28;20052;-82
2021/08/08 02:35:39;;;;;;;19.90;4.28;;;13.30;99.90;;;;;;5075927;28;20052;-81
2021/08/08 02:38:06;;;;;;;15.48;3.90;;;13.20;99.90;;;;;;5074491;28;20055;-81
2021/08/08 02:40:33;;;;;;;20.05;4.45;;;13.20;99.90;;;;;;5075448;28;20052;-81
2021/08/08 02:43:01;;;;;;;15.85;3.47;;;13.20;99.90;;;;;;5075033;28;20135;-82
2021/08/08 02:45:27;;;;;;;18.85;4.22;;;13.20;99.90;;;;;;5074070;28;20058;-82
2021/08/08 02:47:55;;;;;;;17.58;4.10;;;13.20;99.90;;;;;;5075398;28;20490;-82
2021/08/08 02:50:22;;;;;;;20.10;3.83;;;13.20;99.90;;;;;;5074104;28;20482;-79
2021/08/08 02:52:53;;;;;;;15.80;4.03;;;13.20;99.90;;;;;;5075033;28;20044;-80
2021/08/08 02:55:20;;;;;;;13.65;4.32;;;13.10;99.90;;;;;;5074057;28;20075;-82
2021/08/08 02:57:48;;;;;;;22.25;4.20;;;13.10;99.90;;;;;;5074838;28;20051;-82
2021/08/08 03:00:15;;;;;;;18.52;4.00;;;13.10;99.90;;;;;;5074491;28;20074;-81
2021/08/08 03:02:42;;;;;;;17.02;4.20;;;13.10;99.90;;;;;;5075065;28;20068;-80
2021/08/08 03:05:10;;;;;;;17.88;4.13;;;13.10;99.90;;;;;;5073740;28;20493;-80
2021/08/08 03:07:37;;;;;;;17.05;4.00;;;13.10;99.90;;;;;;5073798;28;20052;-81
2021/08/08 03:10:05;;;;;;;19.90;4.15;;;13.10;99.90;;;;;;5073411;28;20101;-82
2021/08/08 03:12:32;;;;;;;17.98;4.22;;;13.10;99.90;;;;;;5074102;28;20040;-82
2021/08/08 03:14:59;;;;;;;17.65;4.95;;;13.10;99.90;;;;;;5075007;28;20063;-82
2021/08/08 03:17:26;;;;;;;16.80;4.82;;;13.10;99.90;;;;;;5073548;28;20047;-82
2021/08/08 03:19:53;;;;;;;13.82;3.92;;;13.00;99.90;;;;;;5074320;28;20055;-82
2021/08/08 03:22:20;;;;;;;15.07;4.07;;;13.00;99.90;;;;;;5073680;28;20078;-81
2021/08/08 03:24:47;;;;;;;15.38;3.72;;;13.00;99.90;;;;;;5074163;28;20043;-81
2021/08/08 03:27:14;;;;;;;22.77;4.65;;;13.00;99.90;;;;;;5073747;28;20060;-80
2021/08/08 03:29:41;;;;;;;19.10;4.53;;;13.00;99.90;;;;;;5074492;28;20118;-81
2021/08/08 03:32:08;;;;;;;21.17;4.18;;;13.00;99.90;;;;;;5073351;28;20051;-78
2021/08/08 03:34:35;;;;;;;18.65;4.10;;;13.00;99.90;;;;;;5073801;28;20048;-82
2021/08/08 03:37:02;;;;;;;19.77;4.35;;;13.00;99.90;;;;;;5074183;28;20036;-82
2021/08/08 03:39:29;;;;;;;16.20;4.32;;;12.90;99.90;;;;;;5073703;28;20048;-81
2021/08/08 03:41:56;;;;;;;19.15;5.38;;;13.00;99.90;;;;;;5073998;28;20043;-81
2021/08/08 03:44:23;;;;;;;20.40;4.85;;;12.90;99.90;;;;;;5072963;28;20047;-80
2021/08/08 03:46:50;;;;;;;23.73;5.30;;;12.90;99.90;;;;;;5073662;28;20048;-81
2021/08/08 03:49:18;;;;;;;17.17;4.25;;;12.90;99.90;;;;;;5072685;28;20043;-79
2021/08/08 03:51:45;;;;;;;21.55;5.07;;;12.90;99.90;;;;;;5073788;28;20101;-82
2021/08/08 03:54:12;;;;;;;16.27;4.07;;;12.90;99.90;;;;;;5073507;28;20048;-83
2021/08/08 03:56:39;;;;;;;14.45;4.00;;;12.90;99.90;;;;;;5074084;28;20055;-81
2021/08/08 03:59:06;;;;;;;19.23;4.03;;;12.90;99.90;;;;;;5073043;28;20044;-80
2021/08/08 04:01:33;;;;;;;27.10;5.03;;;12.90;99.90;;;;;;5073366;28;20475;-82
2021/08/08 04:04:00;;;;;;;24.10;4.45;;;13.00;99.90;;;;;;5073600;28;20044;-82
2021/08/08 04:06:27;;;;;;;24.90;5.20;;;13.00;99.90;;;;;;5072914;28;20373;-82
2021/08/08 04:08:54;;;;;;;27.02;5.20;;;13.00;99.90;;;;;;5074215;28;20040;-82
2021/08/08 04:11:22;;;;;;;18.67;4.80;;;13.00;99.90;;;;;;5072565;28;20497;-81
2021/08/08 04:13:48;;;;;;;26.45;5.60;;;13.00;99.90;;;;;;5073469;28;20040;-82
2021/08/08 04:16:15;;;;;;;23.00;5.10;;;13.00;99.90;;;;;;5072716;28;20059;-81
2021/08/08 04:18:42;;;;;;;22.30;5.10;;;13.00;99.90;;;;;;5073356;28;20392;-83
2021/08/08 04:21:09;;;;;;;25.40;5.32;;;13.10;99.90;;;;;;5072677;28;20051;-82
2021/08/08 04:23:37;;;;;;;24.55;5.07;;;13.10;99.90;;;;;;5074221;28;20044;-82
2021/08/08 04:26:04;;;;;;;19.92;4.28;;;13.10;99.90;;;;;;5072307;28;20222;-78
2021/08/08 04:28:31;;;;;;;21.58;4.55;;;13.10;99.90;;;;;;5073206;28;20044;-81
2021/08/08 04:30:58;;;;;;;23.52;4.70;;;13.10;99.90;;;;;;5073493;28;20048;-79
2021/08/08 04:33:25;;;;;;;21.88;5.05;;;13.10;99.90;;;;;;5072294;28;20052;-82
2021/08/08 04:35:52;;;;;;;24.73;4.65;;;13.10;99.90;;;;;;5074222;28;20051;-80
2021/08/08 04:38:18;;;;;;;26.10;5.20;;;13.10;99.90;;;;;;5072183;28;20047;-81
2021/08/08 04:40:45;;;;;;;24.75;5.00;;;13.20;99.90;;;;;;5073457;28;20044;-83
2021/08/08 04:43:12;;;;;;;24.65;4.95;;;13.20;99.90;;;;;;5072017;28;20048;-82
2021/08/08 04:45:39;;;;;;;22.00;4.85;;;13.20;99.90;;;;;;5073204;28;20044;-80
2021/08/08 04:48:06;;;;;;;21.70;4.60;;;13.20;99.90;;;;;;5072929;28;20434;-82
2021/08/08 04:50:33;;;;;;;22.58;4.80;;;13.30;99.90;;;;;;5072863;28;20121;-81
2021/08/08 04:53:00;;;;;;;28.30;5.13;;;13.30;99.90;;;;;;5073163;28;20081;-82
2021/08/08 04:55:27;;;;;;;27.75;4.88;;;13.30;99.90;;;;;;5072262;28;20048;-83
2021/08/08 04:57:54;;;;;;;31.10;5.72;;;13.40;99.90;;;;;;5072615;28;20131;-81
2021/08/08 05:00:21;;;;;;;24.02;4.78;;;13.40;99.90;;;;;;5072481;28;20059;-82
2021/08/08 05:02:49;;;;;;;22.38;4.40;;;13.40;99.90;;;;;;5074073;28;20048;-82
2021/08/08 05:05:16;;;;;;;24.60;4.80;;;13.40;99.90;;;;;;5072005;28;20044;-81
2021/08/08 05:07:47;;;;;;;25.45;4.43;;;13.50;99.90;;;;;;5072950;28;20067;-82
2021/08/08 05:10:18;;;;;;;20.10;4.10;;;13.40;99.90;;;;;;5072086;28;20158;-82
2021/08/08 05:12:45;;;;;;;19.40;4.53;;;13.40;99.90;;;;;;5073179;28;20067;-81
2021/08/08 05:15:12;;;;;;;22.35;4.13;;;13.40;99.90;;;;;;5072457;28;20047;-81
2021/08/08 05:17:39;;;;;;;24.15;4.18;;;13.40;99.90;;;;;;5072916;28;20063;-82
2021/08/08 05:20:07;;;;;;;23.38;4.47;;;13.40;99.90;;;;;;5071722;28;20394;-82
2021/08/08 05:22:35;;;;;;;19.58;3.97;;;13.40;99.90;;;;;;5072507;28;20040;-82
2021/08/08 05:25:03;;;;;;;24.30;4.00;;;13.50;99.90;;;;;;5072853;28;20490;-83
2021/08/08 05:27:33;;;;;;;16.80;3.38;;;13.40;99.90;;;;;;5071853;28;20048;-82
2021/08/08 05:30:02;;;;;;;22.85;3.65;;;13.40;99.90;;;;;;5073700;28;20048;-82
2021/08/08 05:32:29;;;;;;;16.30;3.42;;;13.40;99.90;;;;;;5072988;28;20048;-81
2021/08/08 05:34:56;;;;;;;17.80;3.03;;;13.40;99.90;;;;;;5076536;28;20044;-82
2021/08/08 05:37:23;;;;;;;12.38;3.53;;;13.40;99.90;;;;;;5075088;28;20436;-82
2021/08/08 05:39:50;;;;;;;18.17;3.35;;;13.40;99.90;;;;;;5076228;28;20051;-79
2021/08/08 05:42:17;;;;;;;21.15;3.65;;;13.40;99.90;;;;;;5075787;28;20521;-81
2021/08/08 05:44:45;;;;;;;24.00;3.90;;;13.50;99.90;;;;;;5076943;28;20040;-81
2021/08/08 05:47:12;;;;;;;17.45;3.20;;;13.50;99.90;;;;;;5075199;28;20047;-81
2021/08/08 05:49:39;;;;;;;19.08;3.70;;;13.50;99.90;;;;;;5075630;28;20036;-80
2021/08/08 05:52:07;;;;;;;19.40;3.55;;;13.50;99.90;;;;;;5075501;28;20044;-81
2021/08/08 05:54:34;;;;;;;17.15;4.05;;;13.60;99.90;;;;;;5076629;28;20052;-82
2021/08/08 05:57:01;;;;;;;19.20;3.40;;;13.60;99.90;;;;;;5076494;28;20498;-82
2021/08/08 05:59:28;;;;;;;22.65;3.47;;;13.70;99.90;;;;;;5075134;28;20406;-83
2021/08/08 06:01:55;;;;;;;12.95;3.40;;;13.70;99.90;;;;;;5075825;28;20062;-82
2021/08/08 06:04:22;;;;;;;18.98;3.10;;;13.70;99.90;;;;;;5074918;28;20044;-80
2021/08/08 06:06:50;;;;;;;26.63;4.50;;;13.80;99.90;;;;;;5075710;28;20498;-82
2021/08/08 06:09:17;;;;;;;17.75;3.50;;;13.80;99.90;;;;;;5074948;28;20044;-81
2021/08/08 06:11:44;;;;;;;18.52;3.97;;;13.90;99.90;;;;;;5076097;28;20043;-83
2021/08/08 06:14:11;;;;;;;15.55;3.00;;;13.90;99.90;;;;;;5075055;28;20052;-82
2021/08/08 06:16:38;;;;;;;20.23;4.15;;;13.90;99.90;;;;;;5075238;28;20036;-80
2021/08/08 06:19:05;;;;;;;29.25;4.20;;;14.00;99.90;;;;;;5074841;28;20406;-82
2021/08/08 06:21:32;;;;;;;23.00;3.58;;;14.00;99.90;;;;;;5075189;28;20131;-82
2021/08/08 06:23:59;;;;;;;16.33;3.58;;;14.00;99.90;;;;;;5076263;28;20489;-79
2021/08/08 06:26:26;;;;;;;25.95;4.80;;;14.00;99.90;;;;;;5074520;28;20511;-82
2021/08/08 06:28:55;;;;;;;23.20;3.53;;;14.10;99.90;;;;;;5075319;28;20051;-81
2021/08/08 06:31:22;;;;;;;17.38;3.90;;;14.10;99.90;;;;;;5074605;28;20044;-81
2021/08/08 06:33:49;;;;;;;19.90;3.60;;;14.20;99.90;;;;;;5075607;28;20044;-82
2021/08/08 06:36:16;;;;;;;19.75;3.20;;;14.20;99.90;;;;;;5074846;28;20044;-81
2021/08/08 06:38:43;;;;;;;21.48;3.50;;;14.30;99.90;;;;;;5075897;28;20104;-81
2021/08/08 06:41:10;;;;;;;23.58;3.90;;;14.40;99.90;;;;;;5074311;28;20048;-81
2021/08/08 06:43:37;;;;;;;25.70;3.78;;;14.50;99.90;;;;;;5075196;28;20393;-82
2021/08/08 06:46:03;;;;;;;22.67;3.20;;;14.50;99.90;;;;;;5074946;28;20130;-81
2021/08/08 06:48:34;;;;;;;22.80;3.70;;;14.60;99.90;;;;;;5074663;28;20086;-82
2021/08/08 06:51:04;;;;;;;25.38;3.65;;;14.70;99.90;;;;;;5075581;28;20040;-81
2021/08/08 06:53:31;;;;;;;26.80;4.10;;;14.80;99.90;;;;;;5074311;28;20466;-82
2021/08/08 06:55:59;;;;;;;27.33;4.00;;;14.90;99.90;;;;;;5074918;28;20094;-79
2021/08/08 06:58:26;;;;;;;20.35;3.25;;;15.00;99.90;;;;;;5074069;28;20051;-81
2021/08/08 07:00:53;;;;;;;27.92;4.00;;;15.10;99.90;;;;;;5074925;28;20047;-80
2021/08/08 07:03:20;;;;;;;23.42;3.00;;;15.30;99.90;;;;;;5074154;28;20048;-81
2021/08/08 07:05:47;;;;;;;16.17;3.03;;;15.40;99.90;;;;;;5073705;28;20128;-79
2021/08/08 07:08:14;;;;;;;25.27;4.05;;;15.40;99.90;;;;;;5073247;28;20044;-82
2021/08/08 07:10:41;;;;;;;16.80;2.80;;;15.50;99.90;;;;;;5073577;28;20051;-81
2021/08/08 07:13:08;;;;;;;16.77;2.78;;;15.60;99.90;;;;;;5069275;28;20059;-82
2021/08/08 07:15:35;;;;;;;24.20;3.60;;;15.70;99.90;;;;;;5068150;28;20044;-81
2021/08/08 07:18:02;;;;;;;17.08;3.38;;;15.80;99.90;;;;;;5070014;28;20051;-81
2021/08/08 07:20:29;;;;;;;17.50;3.38;;;15.90;99.90;;;;;;5087511;28;20043;-79
2021/08/08 07:22:56;;;;;;;22.60;3.00;;;16.00;99.90;;;;;;5071874;28;20398;-81
2021/08/08 07:25:24;;;;;;;17.38;3.42;;;16.10;99.90;;;;;;5071676;28;20059;-82
2021/08/08 07:27:51;;;;;;;23.05;3.90;;;16.20;99.90;;;;;;5065235;28;20634;-82
2021/08/08 07:30:18;;;;;;;14.45;3.25;;;16.30;99.90;;;;;;5070074;28;20047;-80
2021/08/08 07:32:45;;;;;;;16.23;3.33;;;16.40;99.90;;;;;;5058283;28;20434;-81
2021/08/08 07:35:12;;;;;;;11.93;2.60;;;16.40;99.90;;;;;;5066279;28;20044;-79
2021/08/08 07:37:39;;;;;;;14.93;2.90;;;16.40;99.90;;;;;;5070546;28;20475;-82
2021/08/08 07:40:06;;;;;;;18.25;2.72;;;16.30;99.90;;;;;;5071484;28;20047;-79
2021/08/08 07:42:33;;;;;;;20.73;2.75;;;16.40;99.90;;;;;;5065597;28;20330;-80
2021/08/08 07:45:00;;;;;;;15.73;2.97;;;16.30;99.90;;;;;;5071967;28;20398;-80
2021/08/08 07:47:28;;;;;;;28.20;3.70;;;16.30;99.90;;;;;;5069011;28;20052;-82
2021/08/08 07:49:54;;;;;;;17.35;3.38;;;16.40;99.90;;;;;;5069321;28;20048;-82
2021/08/08 07:52:21;;;;;;;17.48;2.80;;;16.50;99.90;;;;;;5064767;28;20433;-81
2021/08/08 07:54:48;;;;;;;13.93;2.95;;;16.70;99.90;;;;;;5069546;28;20486;-82
2021/08/08 07:57:15;;;;;;;15.10;2.65;;;16.90;99.90;;;;;;5066650;28;20409;-79
2021/08/08 07:59:42;;;;;;;16.40;2.88;;;17.10;99.90;;;;;;5072072;28;20047;-82
2021/08/08 08:02:09;;;;;;;17.15;2.85;;;17.20;99.90;;;;;;5067701;28;20052;-80
2021/08/08 08:04:39;;;;;;;17.10;2.63;;;17.20;99.90;;;;;;5071996;28;20521;-82
2021/08/08 08:07:06;;;;;;;17.52;3.00;;;17.20;99.90;;;;;;5069086;28;20506;-82
2021/08/08 08:09:33;;;;;;;11.43;2.78;;;17.20;99.90;;;;;;5063854;28;20044;-82
2021/08/08 08:12:00;;;;;;;13.32;2.85;;;17.00;99.90;;;;;;5070516;28;20482;-83
2021/08/08 08:14:27;;;;;;;12.77;2.00;;;16.90;99.90;;;;;;5067404;28;20126;-81
2021/08/08 08:16:54;;;;;;;11.93;1.98;;;16.70;99.90;;;;;;5069946;28;20040;-81
2021/08/08 08:19:21;;;;;;;9.98;2.03;;;16.70;99.90;;;;;;5068484;28;20105;-80
2021/08/08 08:21:48;;;;;;;11.35;1.95;;;16.60;99.90;;;;;;5071010;28;20496;-81
2021/08/08 08:24:15;;;;;;;10.02;2.47;;;16.60;99.90;;;;;;5070167;28;20055;-81
2021/08/08 08:26:42;;;;;;;12.52;1.98;;;16.60;99.90;;;;;;5062724;28;20051;-79
2021/08/08 08:29:09;;;;;;;8.70;1.90;;;16.60;99.90;;;;;;5070092;28;20047;-81
2021/08/08 08:31:36;;;;;;;11.98;2.92;;;16.60;99.90;;;;;;5065282;28;20044;-81
2021/08/08 08:34:03;;;;;;;13.95;2.15;;;16.60;99.90;;;;;;5069384;28;20044;-81
2021/08/08 08:36:30;;;;;;;10.70;2.20;;;16.60;99.90;;;;;;5068264;28;20390;-81
2021/08/08 08:38:58;;;;;;;12.83;2.60;;;16.70;99.90;;;;;;5069656;28;20070;-82
2021/08/08 08:41:28;;;;;;;11.30;2.38;;;16.80;99.90;;;;;;5067216;28;20374;-81
2021/08/08 09:29:33;;;;;;;13.95;2.65;;;18.30;99.90;;;;;;6010080;22;3864235;-83
2021/08/08 09:32:26;;;;;;;;;;;;;;;;;;;;;
2021/08/08 09:35:42;;;;;;;19.60;2.63;;;18.60;99.90;;;;;;6040791;23;20079;-83
2021/08/08 09:38:55;;;;;;;;;;;;;;;;;;;;;
2021/08/08 09:42:07;;;;;;;;;;;;;;;;;;;;;
2021/08/08 09:45:32;;;;;;;11.82;2.30;;;18.90;99.90;;;;;;6008759;23;20150;-82
2021/08/08 09:48:09;;;;;;;8.95;1.85;;;18.90;99.90;;;;;;6007976;23;20022;-82
2021/08/08 09:51:33;;;;;;;12.23;2.22;;;18.80;99.90;;;;;;6080547;23;20026;-82
2021/08/08 09:54:45;;;;;;;;;;;;;;;;;;;;;
2021/08/08 09:57:13;;;;;;;8.50;2.13;;;19.00;99.90;;;;;;6072193;23;20351;-82
2021/08/08 09:59:51;;;;;;;9.23;1.80;;;18.90;99.90;;;;;;6118476;23;20021;-80
2021/08/08 10:02:20;;;;;;;11.93;2.05;;;18.90;99.90;;;;;;6128242;23;20017;-80
2021/08/08 10:04:51;;;;;;;11.57;2.20;;;18.90;99.90;;;;;;6128723;23;20045;-80
2021/08/08 10:07:19;;;;;;;10.50;2.05;;;19.00;99.90;;;;;;6128955;23;20044;-79
2021/08/08 10:09:49;;;;;;;12.82;2.50;;;19.10;99.90;;;;;;6135292;23;20046;-79
2021/08/08 10:12:33;;;;;;;14.50;2.30;;;19.10;99.90;;;;;;6152366;23;20022;-79
2021/08/08 10:15:00;;;;;;;10.88;2.83;;;19.10;99.90;;;;;;6129468;23;20026;-79
2021/08/08 10:17:29;;;;;;;11.85;2.30;;;19.20;99.90;;;;;;6130017;23;20092;-78
2021/08/08 10:19:56;;;;;;;11.07;2.40;;;19.20;99.90;;;;;;6128842;23;20021;-80
2021/08/08 10:22:24;;;;;;;10.05;2.22;;;19.10;99.90;;;;;;6127763;23;20452;-75
2021/08/08 10:24:58;;;;;;;12.98;2.65;;;19.00;99.90;;;;;;6129545;23;20022;-79
2021/08/08 10:27:26;;;;;;;17.00;3.03;;;19.00;99.90;;;;;;6124672;23;20454;-77
2021/08/08 10:29:56;;;;;;;15.77;2.90;;;19.10;99.90;;;;;;6123865;23;20029;-79
2021/08/08 10:32:27;;;;;;;16.30;2.75;;;19.10;99.90;;;;;;6121777;23;20081;-74
2021/08/08 10:34:55;;;;;;;13.32;2.92;;;19.30;99.90;;;;;;6097887;23;20372;-78
2021/08/08 10:37:24;;;;;;;12.90;2.50;;;19.50;99.90;;;;;;6121540;23;20018;-78
2021/08/08 10:39:52;;;;;;;16.35;2.55;;;19.60;99.90;;;;;;6122778;23;20026;-78
2021/08/08 10:42:21;;;;;;;16.70;2.85;;;19.70;99.90;;;;;;6121704;23;20026;-79
2021/08/08 10:44:53;;;;;;;13.60;2.75;;;19.70;99.90;;;;;;6122578;23;20320;-75
2021/08/08 10:47:31;;;;;;;16.77;3.22;;;19.50;99.90;;;;;;6123247;23;20446;-75
2021/08/08 10:50:12;;;;;;;10.95;2.42;;;19.50;99.90;;;;;;6122375;23;20068;-78
2021/08/08 10:52:40;;;;;;;14.48;2.58;;;19.50;99.90;;;;;;6121327;23;20407;-81
2021/08/08 10:55:20;;;;;;;10.95;2.75;;;19.50;99.90;;;;;;6121028;23;20392;-79
2021/08/08 10:57:48;;;;;;;11.38;2.35;;;19.50;99.90;;;;;;6121416;23;20601;-77
2021/08/08 11:00:17;;;;;;;14.25;2.72;;;19.60;99.90;;;;;;6122615;23;20499;-77
2021/08/08 11:02:44;;;;;;;10.63;2.65;;;19.50;99.90;;;;;;6122688;23;20018;-76
2021/08/08 11:05:13;;;;;;;14.17;2.70;;;19.50;99.90;;;;;;6122995;23;20033;-78
2021/08/08 11:07:42;;;;;;;12.98;2.97;;;19.50;99.90;;;;;;6098085;23;20439;-76
2021/08/08 11:10:10;;;;;;;11.68;2.70;;;19.40;99.90;;;;;;6121912;23;20022;-77
2021/08/08 11:12:40;;;;;;;15.27;2.72;;;19.40;99.90;;;;;;6124019;23;20494;-77
2021/08/08 11:15:09;;;;;;;13.05;2.20;;;19.60;99.90;;;;;;6121285;23;20029;-78
2021/08/08 11:17:37;;;;;;;10.23;2.00;;;19.50;99.90;;;;;;6124116;23;20025;-76
2021/08/08 11:20:05;;;;;;;7.28;1.63;;;19.50;99.90;;;;;;6124221;23;20025;-76
2021/08/08 11:22:32;;;;;;;11.98;1.90;;;19.30;99.90;;;;;;6123465;23;20045;-74
2021/08/08 11:25:09;;;;;;;7.57;1.88;;;19.20;99.90;;;;;;6124650;23;20113;-76
2021/08/08 11:27:41;;;;;;;6.50;2.17;;;19.30;99.90;;;;;;6123823;23;20046;-75
2021/08/08 11:30:15;;;;;;;10.13;2.05;;;19.30;99.90;;;;;;6125604;23;20088;-75
2021/08/08 11:32:43;;;;;;;16.33;2.92;;;19.50;99.90;;;;;;6124771;23;20072;-76
2021/08/08 11:35:10;;;;;;;15.63;2.75;;;19.50;99.90;;;;;;6125429;23;20022;-76
2021/08/08 11:37:40;;;;;;;10.70;1.90;;;19.70;99.90;;;;;;6124402;23;20025;-77
2021/08/08 11:40:23;;;;;;;11.55;2.20;;;19.70;99.90;;;;;;6124877;23;20080;-77
2021/08/08 11:43:01;;;;;;;12.68;2.10;;;19.70;99.90;;;;;;6124648;23;20026;-78
2021/08/08 11:45:49;;;;;;;12.32;2.65;;;19.80;99.90;;;;;;6125488;23;20030;-78
2021/08/08 11:48:20;;;;;;;11.00;2.88;;;19.90;99.90;;;;;;6125609;23;20052;-75
2021/08/08 11:51:01;;;;;;;9.20;2.40;;;19.70;99.90;;;;;;6124763;23;20092;-76
2021/08/08 11:53:35;;;;;;;12.32;2.60;;;19.50;99.90;;;;;;6125159;23;20021;-81
2021/08/08 11:56:19;;;;;;;12.70;3.05;;;19.30;99.90;;;;;;6125868;23;20351;-77
2021/08/08 11:58:48;;;;;;;11.18;2.55;;;19.20;99.90;;;;;;6123607;23;20022;-80
2021/08/08 12:01:19;;;;;;;8.65;1.90;;;19.30;99.90;;;;;;6123564;23;20030;-80
2021/08/08 12:03:47;;;;;;;7.18;1.58;;;19.60;99.90;;;;;;6125595;23;20431;-80
2021/08/08 12:06:17;;;;;;;5.78;1.60;;;19.70;99.90;;;;;;6123586;23;20021;-80
2021/08/08 12:08:44;;;;;;;7.28;1.92;;;19.70;99.90;;;;;;6124132;23;20370;-80
2021/08/08 12:11:11;;;;;;;8.15;1.85;;;19.80;99.90;;;;;;6123125;23;20319;-81
2021/08/08 12:13:38;;;;;;;7.68;1.85;;;20.00;99.90;;;;;;6124006;23;20355;-80
2021/08/08 12:16:14;;;;;;;12.07;2.13;;;20.00;99.90;;;;;;6123354;23;20098;-79
2021/08/08 12:18:42;;;;;;;9.85;2.00;;;20.10;99.90;;;;;;6124069;23;20018;-77
2021/08/08 12:21:18;;;;;;;8.98;2.30;;;20.10;99.90;;;;;;6125310;23;20521;-79
2021/08/08 12:23:45;;;;;;;8.27;2.03;;;20.20;99.90;;;;;;6124137;23;20022;-78
2021/08/08 12:26:11;;;;;;;8.38;1.83;;;20.20;99.90;;;;;;6123635;23;20017;-80
2021/08/08 12:28:38;;;;;;;12.05;2.38;;;20.30;99.90;;;;;;6124101;23;20029;-76
2021/08/08 12:31:10;;;;;;;10.50;2.17;;;20.40;99.90;;;;;;6125208;23;20065;-78
2021/08/08 12:33:39;;;;;;;9.65;2.10;;;20.30;99.90;;;;;;6125789;23;20089;-78
2021/08/08 12:36:13;;;;;;;6.60;1.70;;;20.30;99.90;;;;;;6123313;23;20018;-78
2021/08/08 12:38:51;;;;;;;8.88;2.10;;;20.30;99.90;;;;;;6125832;23;20026;-76
2021/08/08 12:41:26;;;;;;;13.20;2.05;;;20.40;99.90;;;;;;6123357;23;20026;-80
2021/08/08 12:44:00;;;;;;;7.65;2.05;;;20.50;99.90;;;;;;6125786;23;20018;-78
2021/08/08 12:46:31;;;;;;;9.35;1.92;;;20.60;99.90;;;;;;6123786;23;20030;-76
2021/08/08 12:49:00;;;;;;;7.82;2.17;;;20.60;99.90;;;;;;6124011;23;20022;-77
2021/08/08 12:51:26;;;;;;;;;;;20.60;99.90;;;;;;6125490;23;20018;-77
2021/08/08 12:53:53;;;;;;;7.43;1.88;;;20.40;99.90;;;;;;6126146;23;19917;-77
2021/08/08 12:56:21;;;;;;;10.77;2.22;;;20.30;99.90;;;;;;6124366;23;20335;-76
2021/08/08 12:58:51;;;;;;;6.60;1.80;;;20.00;99.90;;;;;;6124888;23;20371;-77
2021/08/08 13:01:26;;;;;;;11.77;2.65;;;20.00;99.90;;;;;;6124018;23;20026;-79
2021/08/08 13:03:53;;;;;;;14.98;2.53;;;20.00;99.90;;;;;;6125513;23;20022;-78
2021/08/08 13:06:20;;;;;;;9.25;2.13;;;19.90;99.90;;;;;;6123363;23;20032;-77
2021/08/08 13:08:47;;;;;;;13.30;2.67;;;19.90;99.90;;;;;;6125513;23;20018;-79
2021/08/08 13:11:18;;;;;;;6.18;2.13;;;19.80;99.90;;;;;;6123090;23;20018;-77
2021/08/08 13:13:45;;;;;;;7.55;1.92;;;19.70;99.90;;;;;;6125127;23;20447;-78
2021/08/08 13:16:12;;;;;;;6.78;1.58;;;19.60;99.90;;;;;;6099135;23;20506;-78
2021/08/08 13:18:39;;;;;;;3.63;1.25;;;19.60;99.90;;;;;;6123147;23;20053;-80
2021/08/08 13:21:06;;;;;;;5.97;1.50;;;19.70;99.90;;;;;;6122575;23;20308;-80
2021/08/08 13:23:33;;;;;;;5.60;1.42;;;19.70;99.90;;;;;;6125855;23;20029;-76
2021/08/08 13:26:00;;;;;;;6.72;2.10;;;19.80;99.90;;;;;;6120353;23;20030;-80
2021/08/08 13:28:27;;;;;;;6.93;2.03;;;19.80;99.90;;;;;;6119769;23;20049;-79
2021/08/08 13:30:54;;;;;;;8.02;2.20;;;19.90;99.90;;;;;;6122696;23;20018;-81
2021/08/08 13:33:25;;;;;;;7.35;2.10;;;19.80;99.90;;;;;;6124555;23;20084;-81
2021/08/08 13:35:55;;;;;;;9.07;1.80;;;19.70;99.90;;;;;;6125942;23;20439;-85
2021/08/08 13:38:22;;;;;;;6.63;1.90;;;19.80;99.90;;;;;;6124115;23;21089;-81
2021/08/08 13:40:49;;;;;;;7.57;2.50;;;19.60;99.90;;;;;;6125162;23;20026;-84